createdAt,value
2022-08-14T00:00:07.252Z,34.15
2022-08-14T00:02:11.661Z,34.19
2022-08-14T00:04:35.795Z,34.39
2022-08-14T00:06:37.474Z,34.35
2022-08-14T00:08:44.930Z,34.63
2022-08-14T00:10:52.071Z,34.43
2022-08-14T00:12:56.754Z,35.20
2022-08-14T00:14:59.243Z,34.65
2022-08-14T00:17:01.989Z,34.58
2022-08-14T00:19:18.813Z,35.04
2022-08-14T00:21:30.961Z,34.86
2022-08-14T00:23:35.068Z,35.05
2022-08-14T00:25:42.103Z,34.53
2022-08-14T00:27:44.690Z,34.16
2022-08-14T00:29:50.794Z,34.66
2022-08-14T00:31:56.388Z,34.29
2022-08-14T00:33:58.780Z,34.61
2022-08-14T00:36:37.265Z,34.06
2022-08-14T00:38:44.792Z,34.67
2022-08-14T00:40:48.086Z,34.69
2022-08-14T00:42:55.767Z,34.62
2022-08-14T00:44:58.216Z,35.18
2022-08-14T00:47:00.447Z,35.88
2022-08-14T00:49:02.586Z,35.70
2022-08-14T00:51:04.773Z,36.02
2022-08-14T00:53:10.510Z,35.26
2022-08-14T00:55:16.104Z,34.42
2022-08-14T00:57:18.985Z,34.71
2022-08-14T00:59:20.586Z,33.97
2022-08-14T01:01:22.490Z,34.04
2022-08-14T01:03:25.930Z,34.79
2022-08-14T01:05:41.624Z,34.46
2022-08-14T01:07:56.854Z,34.61
2022-08-14T01:10:02.580Z,34.52
2022-08-14T01:12:05.945Z,35.43
2022-08-14T01:14:25.711Z,35.33
2022-08-14T01:16:30.795Z,35.21
2022-08-14T01:18:33.184Z,35.77
2022-08-14T01:20:39.879Z,35.16
2022-08-14T01:22:43.504Z,35.46
2022-08-14T01:24:45.280Z,35.37
2022-08-14T01:26:50.816Z,35.25
2022-08-14T01:28:56.955Z,35.08
2022-08-14T01:30:59.936Z,34.83
2022-08-14T01:33:01.598Z,35.65
2022-08-14T01:35:19.829Z,35.33
2022-08-14T01:37:27.942Z,35.10
2022-08-14T01:39:32.357Z,34.85
2022-08-14T01:41:35.324Z,35.47
2022-08-14T01:43:56.656Z,35.71
2022-08-14T01:46:06.734Z,35.66
2022-08-14T01:48:13.771Z,35.31
2022-08-14T01:50:15.785Z,35.63
2022-08-14T01:52:34.462Z,36.09
2022-08-14T01:54:40.306Z,36.27
2022-08-14T01:56:42.089Z,35.85
2022-08-14T01:58:58.058Z,36.11
2022-08-14T02:00:59.948Z,35.88
2022-08-14T02:03:02.003Z,36.61
2022-08-14T02:05:03.976Z,36.27
2022-08-14T02:07:07.134Z,36.19
2022-08-14T02:09:19.323Z,36.99
2022-08-14T02:11:26.251Z,36.67
2022-08-14T02:13:27.792Z,36.85
2022-08-14T02:15:32.328Z,36.83
2022-08-14T02:17:34.104Z,37.28
2022-08-14T02:19:35.697Z,37.57
2022-08-14T02:21:43.362Z,37.26
2022-08-14T02:23:46.685Z,37.54
2022-08-14T02:25:54.716Z,37.51
2022-08-14T02:28:22.670Z,37.39
2022-08-14T02:30:23.864Z,37.55
2022-08-14T02:32:30.240Z,38.04
2022-08-14T02:34:46.218Z,37.31
2022-08-14T02:37:05.467Z,37.99
2022-08-14T02:39:10.498Z,37.83
2022-08-14T02:41:13.237Z,37.61
2022-08-14T02:43:16.475Z,37.43
2022-08-14T02:45:24.616Z,37.68
2022-08-14T02:47:29.042Z,38.00
2022-08-14T02:49:33.914Z,38.39
2022-08-14T02:51:37.089Z,38.29
2022-08-14T02:53:42.528Z,39.28
2022-08-14T02:55:44.157Z,38.55
2022-08-14T02:57:46.349Z,38.28
2022-08-14T03:00:01.002Z,38.56
2022-08-14T03:02:04.620Z,38.71
2022-08-14T03:04:07.058Z,38.47
2022-08-14T03:06:20.466Z,37.82
2022-08-14T03:08:38.767Z,38.59
2022-08-14T03:10:48.548Z,38.64
2022-08-14T03:12:51.022Z,38.20
2022-08-14T03:14:53.293Z,38.07
2022-08-14T03:16:56.242Z,38.04
2022-08-14T03:18:59.917Z,37.61
2022-08-14T03:21:04.101Z,37.69
2022-08-14T03:23:05.861Z,37.98
2022-08-14T03:25:10.015Z,37.74
2022-08-14T03:27:12.841Z,37.04
2022-08-14T03:29:17.623Z,37.22
2022-08-14T03:31:20.319Z,37.11
2022-08-14T03:33:24.094Z,36.55
2022-08-14T03:35:30.813Z,36.36
2022-08-14T03:39:10.929Z,36.89
2022-08-14T03:40:00.860Z,37.14
2022-08-14T03:42:02.487Z,36.79
2022-08-14T03:45:26.801Z,36.60
2022-08-14T03:46:51.925Z,36.17
2022-08-14T03:48:54.104Z,36.37
2022-08-14T03:50:56.216Z,36.30
2022-08-14T03:53:00.488Z,35.99
2022-08-14T03:55:03.493Z,36.56
2022-08-14T03:57:05.658Z,36.48
2022-08-14T03:59:07.254Z,36.31
2022-08-14T04:01:20.636Z,37.09
2022-08-14T04:03:24.173Z,36.07
2022-08-14T04:05:27.349Z,36.59
2022-08-14T04:07:32.755Z,36.85
2022-08-14T04:09:37.552Z,36.73
2022-08-14T04:11:39.126Z,37.11
2022-08-14T04:13:43.680Z,36.67
2022-08-14T04:15:56.144Z,36.78
2022-08-14T04:18:04.642Z,37.19
2022-08-14T04:20:07.290Z,37.21
2022-08-14T04:22:13.550Z,37.19
2022-08-14T04:24:19.978Z,38.04
2022-08-14T04:26:27.006Z,37.91
2022-08-14T04:29:05.418Z,37.36
2022-08-14T04:31:05.801Z,37.69
2022-08-14T04:33:18.454Z,37.99
2022-08-14T04:35:23.708Z,37.72
2022-08-14T04:37:26.998Z,37.48
2022-08-14T04:39:30.743Z,37.36
2022-08-14T04:41:33.430Z,37.66
2022-08-14T04:43:38.437Z,37.34
2022-08-14T04:45:40.558Z,37.78
2022-08-14T04:47:46.342Z,37.64
2022-08-14T04:49:56.895Z,37.84
2022-08-14T04:52:00.054Z,38.00
2022-08-14T04:54:06.135Z,38.86
2022-08-14T04:56:30.137Z,38.30
2022-08-14T04:58:34.115Z,38.57
2022-08-14T05:00:36.123Z,38.63
2022-08-14T05:02:37.813Z,39.17
2022-08-14T05:04:39.970Z,39.12
2022-08-14T05:06:49.089Z,39.63
2022-08-14T05:08:57.028Z,38.99
2022-08-14T05:11:04.899Z,39.06
2022-08-14T05:13:14.480Z,38.89
2022-08-14T05:15:17.800Z,39.48
2022-08-14T05:17:20.077Z,39.67
2022-08-14T05:19:27.240Z,39.63
2022-08-14T05:21:58.224Z,39.14
2022-08-14T05:23:53.824Z,39.44
2022-08-14T05:25:59.319Z,40.03
2022-08-14T05:28:12.474Z,39.80
2022-08-14T05:30:18.067Z,39.72
2022-08-14T05:32:19.698Z,40.01
2022-08-14T05:34:21.749Z,39.40
2022-08-14T05:36:30.398Z,40.33
2022-08-14T05:38:37.133Z,39.81
2022-08-14T05:40:39.992Z,39.93
2022-08-14T05:42:42.327Z,39.98
2022-08-14T05:44:49.788Z,40.69
2022-08-14T05:46:55.743Z,39.89
2022-08-14T05:48:59.098Z,40.23
2022-08-14T05:51:00.707Z,40.13
2022-08-14T05:53:03.344Z,41.02
2022-08-14T05:55:06.658Z,40.91
2022-08-14T05:57:08.240Z,41.20
2022-08-14T05:59:11.620Z,40.28
2022-08-14T06:01:14.607Z,41.04
2022-08-14T06:03:19.134Z,41.42
2022-08-14T06:05:23.243Z,41.98
2022-08-14T06:07:25.071Z,41.68
2022-08-14T06:09:26.671Z,41.24
2022-08-14T06:11:30.935Z,41.02
2022-08-14T06:13:44.490Z,41.52
2022-08-14T06:15:47.809Z,40.70
2022-08-14T06:17:58.482Z,41.02
2022-08-14T06:20:01.359Z,41.15
2022-08-14T06:22:03.480Z,41.41
2022-08-14T06:24:05.483Z,41.10
2022-08-14T06:26:12.234Z,41.29
2022-08-14T06:28:27.495Z,41.02
2022-08-14T06:30:45.803Z,40.06
2022-08-14T06:32:52.575Z,40.33
2022-08-14T06:35:09.671Z,40.11
2022-08-14T06:37:16.704Z,39.74
2022-08-14T06:39:18.601Z,40.17
2022-08-14T06:41:58.355Z,40.75
2022-08-14T06:44:00.233Z,39.24
2022-08-14T06:46:03.786Z,39.64
2022-08-14T06:48:13.027Z,39.25
2022-08-14T06:50:18.915Z,39.21
2022-08-14T06:52:23.541Z,38.62
2022-08-14T06:54:31.244Z,38.82
2022-08-14T06:56:33.532Z,38.56
2022-08-14T06:58:36.820Z,38.69
2022-08-14T07:00:38.824Z,37.97
2022-08-14T07:02:43.603Z,39.03
2022-08-14T07:04:45.476Z,39.00
2022-08-14T07:06:48.483Z,38.30
2022-08-14T07:08:50.140Z,38.35
2022-08-14T07:10:54.516Z,37.38
2022-08-14T07:13:04.236Z,37.84
2022-08-14T07:15:07.450Z,36.59
2022-08-14T07:17:09.025Z,37.90
2022-08-14T07:19:11.244Z,37.04
2022-08-14T07:21:12.840Z,36.75
2022-08-14T07:23:19.942Z,36.63
2022-08-14T07:25:22.923Z,35.67
2022-08-14T07:27:36.138Z,35.64
2022-08-14T07:29:51.671Z,35.71
2022-08-14T07:31:53.819Z,35.04
2022-08-14T07:33:55.432Z,36.16
2022-08-14T07:36:00.435Z,34.76
2022-08-14T07:38:02.058Z,35.84
2022-08-14T07:40:06.449Z,34.86
2022-08-14T07:42:08.232Z,35.00
2022-08-14T07:44:29.489Z,33.84
2022-08-14T07:46:31.880Z,34.52
2022-08-14T07:48:38.197Z,34.29
2022-08-14T07:50:40.511Z,34.00
2022-08-14T07:52:48.774Z,34.10
2022-08-14T07:54:50.615Z,34.01
2022-08-14T07:56:56.554Z,35.70
2022-08-14T07:58:58.699Z,35.07
2022-08-14T08:01:01.436Z,34.12
2022-08-14T08:03:04.709Z,33.54
2022-08-14T08:05:07.871Z,33.51
2022-08-14T08:07:10.196Z,33.18
2022-08-14T08:09:12.531Z,35.41
2022-08-14T08:11:16.501Z,34.10
2022-08-14T08:13:22.337Z,38.34
2022-08-14T08:15:27.492Z,34.78
2022-08-14T08:17:34.963Z,33.29
2022-08-14T08:19:39.954Z,39.41
2022-08-14T08:21:43.526Z,34.87
2022-08-14T08:23:50.932Z,38.29
2022-08-14T08:25:53.198Z,38.70
2022-08-14T08:28:08.195Z,37.70
2022-08-14T08:30:13.305Z,35.16
2022-08-14T08:32:14.906Z,33.52
2022-08-14T08:34:18.252Z,34.10
2022-08-14T08:36:20.061Z,33.05
2022-08-14T08:39:17.616Z,33.09
2022-08-14T08:40:47.792Z,32.75
2022-08-14T08:42:52.044Z,32.59
2022-08-14T08:44:54.914Z,32.87
2022-08-14T08:46:58.549Z,31.82
2022-08-14T08:51:03.099Z,32.50
2022-08-14T08:53:08.766Z,33.94
2022-08-14T08:55:10.932Z,32.76
2022-08-14T08:57:15.703Z,33.01
2022-08-14T08:59:30.942Z,34.82
2022-08-14T09:01:33.336Z,32.48
2022-08-14T09:03:43.969Z,32.36
2022-08-14T09:05:53.961Z,32.37
2022-08-14T09:08:09.368Z,32.15
2022-08-14T09:10:30.911Z,32.10
2022-08-14T09:12:33.194Z,32.24
2022-08-14T09:14:34.958Z,32.17
2022-08-14T09:16:41.554Z,32.14
2022-08-14T09:18:49.946Z,31.49
2022-08-14T09:20:58.630Z,31.83
2022-08-14T09:23:00.776Z,32.03
2022-08-14T09:25:03.364Z,32.15
2022-08-14T09:27:08.671Z,32.17
2022-08-14T09:29:23.836Z,31.85
2022-08-14T09:31:26.783Z,31.75
2022-08-14T09:33:58.201Z,32.35
2022-08-14T09:36:33.300Z,32.45
2022-08-14T09:38:45.940Z,31.26
2022-08-14T09:40:59.140Z,32.10
2022-08-14T09:43:11.315Z,30.76
2022-08-14T09:45:15.405Z,29.94
2022-08-14T09:47:18.579Z,30.36
2022-08-14T09:49:31.832Z,31.11
2022-08-14T09:51:44.909Z,30.03
2022-08-14T09:54:19.461Z,31.17
2022-08-14T09:56:24.315Z,30.92
2022-08-14T09:58:37.874Z,31.12
2022-08-14T10:00:45.150Z,31.12
2022-08-14T10:02:54.617Z,28.79
2022-08-14T10:05:05.945Z,30.77
2022-08-14T10:07:10.394Z,27.51
2022-08-14T10:09:16.558Z,29.25
2022-08-14T10:11:23.576Z,27.89
2022-08-14T10:13:26.103Z,30.30
2022-08-14T10:15:30.964Z,28.81
2022-08-14T10:17:33.125Z,27.11
2022-08-14T10:19:48.454Z,27.53
2022-08-14T10:23:12.019Z,27.91
2022-08-14T10:24:37.035Z,27.09
2022-08-14T10:26:39.217Z,29.97
2022-08-14T10:29:18.699Z,29.93
2022-08-14T10:31:16.550Z,29.75
2022-08-14T10:33:27.697Z,26.06
2022-08-14T10:35:39.943Z,24.01
2022-08-14T10:37:45.627Z,24.63
2022-08-14T10:40:05.522Z,24.30
2022-08-14T10:42:16.473Z,24.23
2022-08-14T10:44:23.419Z,23.89
2022-08-14T10:47:37.182Z,24.24
2022-08-14T10:48:56.730Z,24.04
2022-08-14T10:50:58.284Z,23.28
2022-08-14T10:53:03.201Z,23.80
2022-08-14T10:55:07.375Z,22.92
2022-08-14T10:57:14.357Z,23.17
2022-08-14T10:59:18.858Z,22.88
2022-08-14T11:01:30.696Z,23.41
2022-08-14T11:03:56.766Z,25.19
2022-08-14T11:05:58.906Z,23.37
2022-08-14T11:08:02.004Z,25.98
2022-08-14T11:10:14.516Z,27.97
2022-08-14T11:12:34.295Z,28.21
2022-08-14T11:14:41.037Z,27.96
2022-08-14T11:16:53.437Z,27.51
2022-08-14T11:18:59.641Z,28.03
2022-08-14T11:21:01.942Z,27.56
2022-08-14T11:23:08.706Z,24.91
2022-08-14T11:25:12.611Z,24.12
2022-08-14T11:27:23.668Z,24.95
2022-08-14T11:29:36.353Z,22.86
2022-08-14T11:31:39.361Z,23.23
2022-08-14T11:33:43.459Z,24.79
2022-08-14T11:35:48.558Z,23.99
2022-08-14T11:37:52.120Z,25.89
2022-08-14T11:39:59.466Z,23.52
2022-08-14T11:42:01.210Z,22.85
2022-08-14T11:44:45.419Z,25.63
2022-08-14T11:46:44.496Z,22.40
2022-08-14T11:49:01.591Z,23.78
2022-08-14T11:51:13.071Z,20.91
2022-08-14T11:53:20.604Z,21.69
2022-08-14T11:55:27.118Z,21.49
2022-08-14T11:57:28.771Z,21.62
2022-08-14T11:59:33.581Z,22.32
2022-08-14T12:01:41.216Z,21.02
2022-08-14T12:03:52.424Z,21.10
2022-08-14T12:06:05.642Z,20.96
2022-08-14T12:08:12.151Z,21.48
2022-08-14T12:10:26.728Z,23.54
2022-08-14T12:12:42.222Z,21.26
2022-08-14T12:14:50.031Z,21.47
2022-08-14T12:16:59.687Z,20.74
2022-08-14T12:19:03.789Z,21.27
2022-08-14T12:21:15.749Z,20.20
2022-08-14T12:23:22.823Z,20.20
2022-08-14T12:25:25.217Z,20.52
2022-08-14T12:27:41.364Z,19.41
2022-08-14T12:29:54.161Z,20.50
2022-08-14T12:32:00.739Z,19.48
2022-08-14T12:34:04.342Z,19.19
2022-08-14T12:36:20.695Z,18.38
2022-08-14T12:38:33.071Z,18.89
2022-08-14T12:40:46.119Z,17.69
2022-08-14T12:42:53.772Z,18.27
2022-08-14T12:44:57.136Z,17.64
2022-08-14T12:47:07.285Z,17.36
2022-08-14T12:49:11.004Z,15.51
2022-08-14T12:51:16.832Z,16.06
2022-08-14T12:53:19.524Z,15.02
2022-08-14T12:55:21.682Z,14.55
2022-08-14T12:57:32.950Z,13.88
2022-08-14T12:59:43.127Z,14.25
2022-08-14T13:01:59.324Z,13.97
2022-08-14T13:04:07.391Z,13.38
2022-08-14T13:06:09.219Z,13.08
2022-08-14T13:08:33.630Z,14.29
2022-08-14T13:10:47.316Z,13.53
2022-08-14T13:13:13.291Z,14.30
2022-08-14T13:15:16.953Z,13.39
2022-08-14T13:17:23.594Z,13.88
2022-08-14T13:19:28.229Z,13.67
2022-08-14T13:21:30.697Z,13.36
2022-08-14T13:23:53.345Z,13.64
2022-08-14T13:25:56.742Z,13.18
2022-08-14T13:27:58.831Z,13.15
2022-08-14T13:30:01.695Z,12.57
2022-08-14T13:32:06.269Z,12.68
2022-08-14T13:34:12.518Z,12.31
2022-08-14T13:36:24.012Z,12.21
2022-08-14T13:38:27.996Z,12.00
2022-08-14T13:40:29.773Z,12.54
2022-08-14T13:42:31.928Z,12.27
2022-08-14T13:44:36.281Z,12.36
2022-08-14T13:46:44.559Z,11.79
2022-08-14T13:48:48.221Z,12.24
2022-08-14T13:50:55.279Z,12.05
2022-08-14T13:52:59.719Z,12.06
2022-08-14T13:55:04.955Z,12.75
2022-08-14T13:57:11.469Z,12.22
2022-08-14T13:59:20.090Z,11.58
2022-08-14T14:01:25.824Z,11.91
2022-08-14T14:03:30.160Z,11.37
2022-08-14T14:05:52.725Z,11.85
2022-08-14T14:07:59.941Z,11.64
2022-08-14T14:10:05.410Z,12.36
2022-08-14T14:12:37.899Z,11.63
2022-08-14T14:14:50.943Z,12.26
2022-08-14T14:16:53.508Z,12.34
2022-08-14T14:18:57.601Z,12.84
2022-08-14T14:20:59.332Z,13.42
2022-08-14T14:23:09.645Z,13.95
2022-08-14T14:25:19.425Z,14.11
2022-08-14T14:27:41.071Z,14.86
2022-08-14T14:29:47.523Z,14.63
2022-08-14T14:31:52.781Z,15.20
2022-08-14T14:33:59.799Z,15.18
2022-08-14T14:36:03.254Z,15.24
2022-08-14T14:38:13.178Z,15.07
2022-08-14T14:40:52.183Z,16.58
2022-08-14T14:42:47.999Z,15.46
2022-08-14T14:45:01.178Z,16.13
2022-08-14T14:47:03.254Z,17.84
2022-08-14T14:49:10.095Z,16.32
2022-08-14T14:51:16.893Z,16.59
2022-08-14T14:53:20.541Z,16.55
2022-08-14T14:55:22.384Z,17.24
2022-08-14T14:57:30.310Z,16.49
2022-08-14T14:59:38.042Z,16.79
2022-08-14T15:01:41.115Z,16.57
2022-08-14T15:03:43.346Z,16.68
2022-08-14T15:05:44.938Z,16.10
2022-08-14T15:07:49.988Z,16.54
2022-08-14T15:09:53.207Z,16.94
2022-08-14T15:11:54.906Z,16.03
2022-08-14T15:13:56.956Z,17.66
2022-08-14T15:15:59.777Z,17.91
2022-08-14T15:18:02.328Z,18.52
2022-08-14T15:20:10.699Z,17.53
2022-08-14T15:22:19.416Z,18.09
2022-08-14T15:24:26.398Z,17.65
2022-08-14T15:26:32.017Z,17.20
2022-08-14T15:28:38.652Z,18.53
2022-08-14T15:30:41.825Z,18.74
2022-08-14T15:32:43.515Z,17.13
2022-08-14T15:34:51.765Z,19.30
2022-08-14T15:36:54.579Z,17.28
2022-08-14T15:38:56.282Z,17.19
2022-08-14T15:40:59.262Z,20.12
2022-08-14T15:43:09.094Z,18.87
2022-08-14T15:45:12.975Z,17.36
2022-08-14T15:47:16.561Z,17.77
2022-08-14T15:49:34.891Z,20.25
2022-08-14T15:51:42.282Z,20.35
2022-08-14T15:53:46.630Z,19.76
2022-08-14T15:55:52.925Z,17.87
2022-08-14T15:58:02.050Z,17.88
2022-08-14T16:00:11.407Z,18.08
2022-08-14T16:02:27.431Z,18.22
2022-08-14T16:04:29.340Z,17.94
2022-08-14T16:06:31.098Z,18.20
2022-08-14T16:08:32.908Z,17.45
2022-08-14T16:10:41.525Z,17.65
2022-08-14T16:12:50.053Z,17.79
2022-08-14T16:14:51.706Z,18.06
2022-08-14T16:17:00.036Z,17.79
2022-08-14T16:19:04.063Z,17.33
2022-08-14T16:21:12.487Z,17.39
2022-08-14T16:23:15.622Z,18.16
2022-08-14T16:25:19.470Z,17.94
2022-08-14T16:27:39.343Z,17.23
2022-08-14T16:29:43.055Z,17.92
2022-08-14T16:31:47.093Z,18.24
2022-08-14T16:33:59.594Z,17.79
2022-08-14T16:36:04.932Z,17.91
2022-08-14T16:38:45.758Z,17.76
2022-08-14T16:40:48.608Z,17.94
2022-08-14T16:43:04.582Z,17.35
2022-08-14T16:45:12.547Z,17.28
2022-08-14T16:47:15.411Z,18.16
2022-08-14T16:49:18.493Z,17.83
2022-08-14T16:51:21.777Z,18.53
2022-08-14T16:53:23.650Z,18.42
2022-08-14T16:55:30.531Z,18.07
2022-08-14T16:57:32.710Z,17.71
2022-08-14T16:59:52.751Z,17.89
2022-08-14T17:01:57.862Z,18.72
2022-08-14T17:04:02.324Z,18.16
2022-08-14T17:06:30.869Z,17.59
2022-08-14T17:08:41.379Z,17.78
2022-08-14T17:11:04.750Z,17.88
2022-08-14T17:13:17.148Z,18.22
2022-08-14T17:15:18.882Z,18.13
2022-08-14T17:17:22.448Z,17.29
2022-08-14T17:19:25.814Z,18.39
2022-08-14T17:21:37.587Z,18.09
2022-08-14T17:23:39.858Z,19.01
2022-08-14T17:25:49.287Z,17.71
2022-08-14T17:28:49.756Z,19.64
2022-08-14T17:30:49.018Z,18.07
2022-08-14T17:32:57.530Z,18.68
2022-08-14T17:35:01.897Z,18.04
2022-08-14T17:37:05.609Z,19.56
2022-08-14T17:39:17.622Z,18.00
2022-08-14T17:41:21.583Z,16.44
2022-08-14T17:43:29.434Z,18.20
2022-08-14T17:45:44.369Z,17.74
2022-08-14T17:47:49.102Z,16.74
2022-08-14T17:49:53.031Z,19.77
2022-08-14T17:51:57.166Z,17.83
2022-08-14T17:54:08.549Z,19.12
2022-08-14T17:56:10.526Z,23.58
2022-08-14T17:58:20.527Z,26.57
2022-08-14T18:00:23.074Z,22.00
2022-08-14T18:02:31.467Z,21.82
2022-08-14T18:04:35.040Z,22.29
2022-08-14T18:06:38.626Z,21.04
2022-08-14T18:08:58.876Z,21.71
2022-08-14T18:11:03.391Z,22.41
2022-08-14T18:13:05.423Z,21.14
2022-08-14T18:15:14.494Z,21.12
2022-08-14T18:17:18.874Z,20.87
2022-08-14T18:19:30.031Z,20.74
2022-08-14T18:21:56.610Z,21.42
2022-08-14T18:23:53.336Z,21.93
2022-08-14T18:25:58.793Z,20.59
2022-08-14T18:28:16.001Z,21.51
2022-08-14T18:30:33.404Z,20.19
2022-08-14T18:32:47.474Z,20.48
2022-08-14T18:34:59.435Z,22.10
2022-08-14T18:37:16.983Z,22.73
2022-08-14T18:40:03.631Z,23.09
2022-08-14T18:42:32.171Z,22.97
2022-08-14T18:45:16.063Z,23.42
2022-08-14T18:47:23.293Z,23.51
2022-08-14T18:49:24.909Z,23.00
2022-08-14T18:51:45.675Z,23.41
2022-08-14T18:53:56.970Z,21.90
2022-08-14T18:56:00.089Z,21.80
2022-08-14T18:58:26.569Z,20.60
2022-08-14T19:00:53.067Z,21.97
2022-08-14T19:02:55.557Z,20.65
2022-08-14T19:05:02.647Z,21.27
2022-08-14T19:07:16.233Z,20.96
2022-08-14T19:10:06.816Z,21.07
2022-08-14T19:12:15.354Z,21.03
2022-08-14T19:14:44.134Z,20.73
2022-08-14T19:16:53.570Z,20.94
2022-08-14T19:19:00.232Z,21.47
2022-08-14T19:21:13.524Z,20.42
2022-08-14T19:23:17.367Z,20.54
2022-08-14T19:25:47.496Z,20.83
2022-08-14T19:28:27.374Z,21.03
2022-08-14T19:30:33.541Z,21.36
2022-08-14T19:32:38.300Z,21.22
2022-08-14T19:34:48.023Z,21.43
2022-08-14T19:37:05.527Z,22.11
2022-08-14T19:39:08.058Z,21.70
2022-08-14T19:41:13.689Z,22.43
2022-08-14T19:43:56.215Z,22.77
2022-08-14T19:45:45.965Z,23.06
2022-08-14T19:47:50.082Z,22.81
2022-08-14T19:50:24.450Z,22.89
2022-08-14T19:52:22.198Z,22.63
2022-08-14T19:54:29.640Z,22.85
2022-08-14T19:56:35.983Z,23.13
2022-08-14T19:58:54.468Z,22.88
2022-08-14T20:00:58.952Z,22.92
2022-08-14T20:03:10.915Z,22.57
2022-08-14T20:05:18.006Z,22.64
2022-08-14T20:07:27.403Z,22.91
2022-08-14T20:11:04.788Z,22.33
2022-08-14T20:12:29.184Z,22.53
2022-08-14T20:14:38.419Z,22.80
2022-08-14T20:16:42.697Z,22.51
2022-08-14T20:18:49.895Z,22.38
2022-08-14T20:20:54.980Z,22.59
2022-08-14T20:22:56.647Z,22.41
2022-08-14T20:25:13.770Z,21.95
2022-08-14T20:27:33.496Z,23.07
2022-08-14T20:29:37.948Z,23.43
2022-08-14T20:31:40.731Z,22.25
2022-08-14T20:34:24.387Z,22.84
2022-08-14T20:36:31.959Z,22.83
2022-08-14T20:38:34.255Z,22.80
2022-08-14T20:40:50.328Z,23.28
2022-08-14T20:42:54.085Z,23.94
2022-08-14T20:45:03.014Z,23.14
2022-08-14T20:47:05.803Z,22.77
2022-08-14T20:49:12.887Z,22.84
2022-08-14T20:51:23.983Z,23.44
2022-08-14T20:53:35.867Z,23.09
2022-08-14T20:55:41.413Z,23.08
2022-08-14T20:57:46.825Z,23.63
2022-08-14T20:59:56.768Z,23.68
2022-08-14T21:02:28.987Z,24.21
2022-08-14T21:04:36.265Z,23.08
2022-08-14T21:07:24.775Z,22.89
2022-08-14T21:09:11.660Z,23.64
2022-08-14T21:11:17.925Z,23.62
2022-08-14T21:14:09.074Z,24.33
2022-08-14T21:15:42.121Z,23.03
2022-08-14T21:17:45.170Z,23.53
2022-08-14T21:19:50.535Z,23.31
2022-08-14T21:21:56.672Z,24.11
2022-08-14T21:23:58.580Z,23.99
2022-08-14T21:26:00.610Z,23.89
2022-08-14T21:28:05.200Z,24.22
2022-08-14T21:30:11.451Z,24.45
2022-08-14T21:32:20.778Z,24.78
2022-08-14T21:34:27.400Z,24.88
2022-08-14T21:36:34.690Z,25.15
2022-08-14T21:38:43.278Z,24.97
2022-08-14T21:40:49.777Z,24.72
2022-08-14T21:42:51.491Z,25.06
2022-08-14T21:44:54.253Z,24.97
2022-08-14T21:46:56.695Z,25.44
2022-08-14T21:48:58.325Z,25.65
2022-08-14T21:51:53.724Z,25.10
2022-08-14T21:53:27.537Z,25.25
2022-08-14T21:55:32.917Z,25.68
2022-08-14T21:57:56.288Z,25.65
2022-08-14T22:00:02.003Z,25.67
2022-08-14T22:02:05.601Z,25.36
2022-08-14T22:04:33.157Z,25.19
2022-08-14T22:06:32.206Z,25.54
2022-08-14T22:08:33.844Z,25.40
2022-08-14T22:10:35.958Z,25.52
2022-08-14T22:12:45.287Z,25.59
2022-08-14T22:15:00.960Z,25.35
2022-08-14T22:17:12.670Z,25.91
2022-08-14T22:19:21.131Z,25.82
2022-08-14T22:21:22.860Z,26.02
2022-08-14T22:23:27.607Z,25.76
2022-08-14T22:25:33.874Z,26.11
2022-08-14T22:27:55.909Z,26.04
2022-08-14T22:29:58.740Z,26.44
2022-08-14T22:32:00.425Z,26.15
2022-08-14T22:34:09.899Z,26.20
2022-08-14T22:36:12.574Z,26.52
2022-08-14T22:38:35.406Z,26.52
2022-08-14T22:40:58.391Z,26.47
2022-08-14T22:43:08.319Z,26.55
2022-08-14T22:45:10.856Z,26.40
2022-08-14T22:47:17.074Z,26.27
2022-08-14T22:50:30.725Z,26.26
2022-08-14T22:51:50.234Z,26.72
2022-08-14T22:53:56.152Z,26.78
2022-08-14T22:55:59.829Z,26.69
2022-08-14T22:58:02.539Z,26.96
2022-08-14T23:00:06.895Z,27.09
2022-08-14T23:02:14.059Z,27.33
2022-08-14T23:04:35.033Z,27.09
2022-08-14T23:07:02.515Z,27.23
2022-08-14T23:09:34.845Z,27.43
2022-08-14T23:11:22.660Z,27.44
2022-08-14T23:13:24.628Z,27.71
2022-08-14T23:15:28.991Z,27.50
2022-08-14T23:17:39.492Z,27.54
2022-08-14T23:19:42.162Z,27.76
2022-08-14T23:21:46.181Z,28.36
2022-08-14T23:23:49.307Z,28.35
2022-08-14T23:26:46.895Z,28.72
2022-08-14T23:28:34.556Z,28.52
2022-08-14T23:30:48.956Z,29.15
2022-08-14T23:32:52.436Z,29.23
2022-08-14T23:34:54.977Z,29.76
2022-08-14T23:36:59.341Z,29.83
2022-08-14T23:39:12.360Z,30.32
2022-08-14T23:41:22.429Z,30.15
2022-08-14T23:43:24.515Z,30.51
2022-08-14T23:45:36.742Z,30.99
2022-08-14T23:47:52.009Z,31.09
2022-08-14T23:50:00.677Z,31.63
2022-08-14T23:52:50.480Z,32.25
2022-08-14T23:54:49.411Z,32.00
2022-08-14T23:56:48.938Z,32.18
2022-08-14T23:59:04.362Z,32.53
